createdAt,value
2023-03-23T15:58:51.000Z,5.60
2023-03-23T16:01:23.910Z,5.28
2023-03-23T16:03:57.363Z,6.35
2023-03-23T16:06:26.382Z,4.20
2023-03-23T16:08:56.616Z,4.47
2023-03-23T16:11:26.963Z,7.68
2023-03-23T16:13:53.542Z,6.05
2023-03-23T16:16:31.220Z,6.50
2023-03-23T16:18:57.817Z,3.30
2023-03-23T16:21:24.482Z,6.30
2023-03-23T16:23:50.947Z,5.28
2023-03-23T16:26:17.930Z,6.38
2023-03-23T16:28:44.571Z,7.45
2023-03-23T16:31:11.748Z,4.57
2023-03-23T16:33:38.545Z,5.25
2023-03-23T16:36:05.505Z,6.72
2023-03-23T16:38:32.028Z,4.78
2023-03-23T16:40:58.973Z,7.13
2023-03-23T16:43:26.054Z,4.13
2023-03-23T16:45:55.958Z,5.07
2023-03-23T16:48:22.961Z,5.78
2023-03-23T16:50:51.791Z,3.58
2023-03-23T16:53:19.127Z,3.92
2023-03-23T16:55:48.295Z,6.18
2023-03-23T16:58:17.714Z,5.97
2023-03-23T17:00:47.790Z,3.42
2023-03-23T17:03:16.380Z,6.55
2023-03-23T17:05:43.652Z,6.57
2023-03-23T17:08:10.656Z,6.07
2023-03-23T17:10:39.517Z,8.90
2023-03-23T17:13:06.348Z,5.60
2023-03-23T17:15:32.911Z,4.68
2023-03-23T17:17:59.658Z,5.55
2023-03-23T17:20:26.342Z,5.47
2023-03-23T17:22:53.132Z,6.45
2023-03-23T17:25:19.786Z,5.15
2023-03-23T17:27:46.515Z,4.38
2023-03-23T17:30:18.655Z,7.10
2023-03-23T17:32:47.402Z,4.68
2023-03-23T17:35:13.980Z,5.57
2023-03-23T17:37:40.783Z,5.78
2023-03-23T17:40:10.452Z,5.28
2023-03-23T17:42:37.590Z,4.18
2023-03-23T17:45:06.705Z,4.57
2023-03-23T17:47:34.085Z,5.13
2023-03-23T17:50:00.684Z,4.95
2023-03-23T17:55:28.261Z,2.83
2023-03-23T17:57:54.730Z,4.65
2023-03-23T18:00:24.661Z,6.00
2023-03-23T18:02:51.547Z,5.20
2023-03-23T18:05:18.361Z,4.72
2023-03-23T18:07:44.823Z,6.00
2023-03-23T18:10:12.988Z,5.00
2023-03-23T18:12:41.562Z,5.93
2023-03-23T18:15:09.257Z,7.25
2023-03-23T18:17:36.357Z,5.07
2023-03-23T18:20:04.886Z,5.03
2023-03-23T18:22:31.406Z,5.97
2023-03-23T18:24:58.743Z,5.93
2023-03-23T18:27:26.346Z,5.93
2023-03-23T18:29:53.519Z,5.57
2023-03-23T18:32:20.853Z,6.63
2023-03-23T18:34:48.795Z,6.15
2023-03-23T18:37:15.473Z,4.93
2023-03-23T18:39:41.989Z,7.38
2023-03-23T18:42:09.211Z,6.40
2023-03-23T18:44:35.862Z,7.15
2023-03-23T18:47:02.451Z,4.65
2023-03-23T18:49:30.106Z,6.93
2023-03-23T18:51:56.633Z,5.32
2023-03-23T18:54:23.081Z,5.00
2023-03-23T18:56:49.591Z,6.28
2023-03-23T18:59:16.238Z,6.35
2023-03-23T19:01:42.893Z,7.63
2023-03-23T19:04:13.631Z,7.65
2023-03-23T19:06:40.567Z,7.18
2023-03-23T19:09:07.584Z,7.03
2023-03-23T19:11:34.652Z,6.28
2023-03-23T19:14:03.315Z,5.47
2023-03-23T19:16:32.540Z,5.57
2023-03-23T19:19:04.105Z,6.38
2023-03-23T19:23:59.750Z,7.60
2023-03-23T19:26:34.763Z,8.60
2023-03-23T19:29:25.354Z,9.45
2023-03-23T19:31:51.620Z,6.93
2023-03-23T19:34:18.872Z,7.93
2023-03-23T19:36:54.378Z,6.40
2023-03-23T19:39:26.172Z,5.93
2023-03-23T19:41:52.889Z,6.93
2023-03-23T19:44:23.406Z,8.38
2023-03-23T19:46:50.206Z,8.38
2023-03-23T19:49:16.956Z,6.28
2023-03-23T19:51:43.552Z,8.18
2023-03-23T19:54:13.145Z,9.10
2023-03-23T19:56:43.419Z,6.47
2023-03-23T19:59:15.024Z,8.18
2023-03-23T20:01:55.887Z,7.82
2023-03-23T20:04:23.989Z,7.15
2023-03-23T20:06:52.868Z,10.50
2023-03-23T20:09:19.824Z,6.47
2023-03-23T20:11:46.964Z,7.57
2023-03-23T20:14:17.768Z,8.20
2023-03-23T20:16:47.426Z,9.02
2023-03-23T20:19:14.001Z,7.07
2023-03-23T20:21:43.310Z,5.43
2023-03-23T20:24:12.641Z,5.60
2023-03-23T20:26:41.781Z,7.43
2023-03-23T20:29:11.636Z,7.50
2023-03-23T20:32:07.546Z,7.50
2023-03-23T20:34:36.212Z,8.93
2023-03-23T20:37:03.708Z,8.27
2023-03-23T20:39:32.038Z,7.32
2023-03-23T20:42:05.991Z,6.10
2023-03-23T20:44:35.088Z,7.93
2023-03-23T20:47:05.970Z,11.57
2023-03-23T20:49:35.532Z,6.30
2023-03-23T20:52:02.514Z,5.82
2023-03-23T20:54:30.656Z,6.18
2023-03-23T20:56:58.651Z,8.05
2023-03-23T20:59:26.195Z,8.98
2023-03-23T21:01:52.794Z,10.25
2023-03-23T21:04:23.073Z,6.68
2023-03-23T21:06:49.846Z,7.70
2023-03-23T21:09:18.237Z,8.75
2023-03-23T21:11:45.930Z,7.95
2023-03-23T21:14:18.838Z,8.18
2023-03-23T21:16:45.540Z,11.75
2023-03-23T21:19:12.519Z,12.93
2023-03-23T21:21:55.234Z,11.43
2023-03-23T21:24:26.729Z,12.70
2023-03-23T21:26:54.380Z,12.48
2023-03-23T21:29:24.686Z,15.75
2023-03-23T21:32:01.086Z,12.73
2023-03-23T21:34:34.826Z,11.82
2023-03-23T21:37:06.137Z,10.27
2023-03-23T21:39:33.637Z,16.23
2023-03-23T21:42:01.777Z,19.45
2023-03-23T21:44:36.847Z,23.73
2023-03-23T21:50:10.633Z,16.00
2023-03-23T21:52:50.833Z,17.92
2023-03-23T21:56:07.241Z,15.40
2023-03-23T21:59:20.035Z,14.75
2023-03-23T22:02:27.584Z,18.83
2023-03-23T22:05:55.170Z,17.40
2023-03-23T22:15:52.354Z,11.45
2023-03-23T22:21:14.172Z,13.77
2023-03-23T22:23:44.569Z,16.88
2023-03-23T22:27:31.224Z,17.77
2023-03-23T22:32:24.386Z,14.90
2023-03-23T22:35:02.255Z,15.98
2023-03-23T22:37:31.319Z,14.15
2023-03-23T22:39:57.889Z,14.73
2023-03-23T22:42:32.748Z,13.20
2023-03-23T22:44:59.473Z,18.05
2023-03-23T22:47:29.126Z,14.88
2023-03-23T22:49:55.677Z,12.57
2023-03-23T22:52:22.232Z,18.10
2023-03-23T22:54:49.120Z,20.40
2023-03-23T22:57:16.058Z,17.67
2023-03-23T22:59:45.324Z,16.58
2023-03-23T23:02:12.110Z,17.67
2023-03-23T23:04:38.842Z,17.58
2023-03-23T23:07:12.967Z,18.00
2023-03-23T23:09:44.983Z,17.00
2023-03-23T23:12:14.192Z,16.58
2023-03-23T23:14:46.663Z,16.88
2023-03-23T23:17:13.400Z,15.35
2023-03-23T23:19:40.584Z,16.17
2023-03-23T23:22:18.462Z,27.25
2023-03-23T23:24:48.750Z,17.95
2023-03-23T23:27:16.400Z,15.07
2023-03-23T23:29:50.655Z,21.30
2023-03-23T23:32:20.017Z,18.65
2023-03-23T23:34:47.008Z,17.65
2023-03-23T23:37:13.847Z,16.50
2023-03-23T23:39:44.242Z,19.90
2023-03-23T23:42:13.575Z,15.15
2023-03-23T23:44:47.801Z,13.93
2023-03-23T23:47:14.714Z,12.48
2023-03-23T23:49:41.414Z,19.50
2023-03-23T23:52:08.718Z,12.38
2023-03-23T23:54:49.802Z,17.90
2023-03-23T23:57:16.749Z,15.27
2023-03-23T23:59:46.391Z,15.70
